sensor_id;sensor_type;location;lat;lon;timestamp;temperature;humidity
5775;DHT22;2913;51.120;6.772;2023-05-18T00:01:26;9.60;99.90
5775;DHT22;2913;51.120;6.772;2023-05-18T00:03:52;9.50;99.90
5775;DHT22;2913;51.120;6.772;2023-05-18T00:06:19;9.50;99.90
5775;DHT22;2913;51.120;6.772;2023-05-18T00:08:46;9.50;99.90
5775;DHT22;2913;51.120;6.772;2023-05-18T00:11:12;9.60;99.90
5775;DHT22;2913;51.120;6.772;2023-05-18T00:13:37;9.50;99.90
5775;DHT22;2913;51.120;6.772;2023-05-18T00:16:03;9.50;99.90
5775;DHT22;2913;51.120;6.772;2023-05-18T00:18:29;9.60;99.90
5775;DHT22;2913;51.120;6.772;2023-05-18T00:20:55;9.60;99.90
5775;DHT22;2913;51.120;6.772;2023-05-18T00:23:29;9.50;99.90
5775;DHT22;2913;51.120;6.772;2023-05-18T00:25:59;9.50;99.90
5775;DHT22;2913;51.120;6.772;2023-05-18T00:28:28;9.50;99.90
5775;DHT22;2913;51.120;6.772;2023-05-18T00:30:54;9.50;99.90
5775;DHT22;2913;51.120;6.772;2023-05-18T00:33:20;9.40;99.90
5775;DHT22;2913;51.120;6.772;2023-05-18T00:35:46;9.30;99.90
5775;DHT22;2913;51.120;6.772;2023-05-18T00:38:16;9.30;99.90
5775;DHT22;2913;51.120;6.772;2023-05-18T00:40:42;9.30;99.90
5775;DHT22;2913;51.120;6.772;2023-05-18T00:43:08;9.30;99.90
5775;DHT22;2913;51.120;6.772;2023-05-18T00:45:38;9.30;99.90
5775;DHT22;2913;51.120;6.772;2023-05-18T00:48:04;9.30;99.90
5775;DHT22;2913;51.120;6.772;2023-05-18T00:50:30;9.20;99.90
5775;DHT22;2913;51.120;6.772;2023-05-18T00:52:58;9.10;99.90
5775;DHT22;2913;51.120;6.772;2023-05-18T00:55:24;9.10;99.90
5775;DHT22;2913;51.120;6.772;2023-05-18T00:57:53;9.00;99.90
5775;DHT22;2913;51.120;6.772;2023-05-18T01:00:23;8.90;99.90
5775;DHT22;2913;51.120;6.772;2023-05-18T01:02:48;8.90;99.90
5775;DHT22;2913;51.120;6.772;2023-05-18T01:05:15;9.00;99.90
5775;DHT22;2913;51.120;6.772;2023-05-18T01:07:42;9.00;99.90
5775;DHT22;2913;51.120;6.772;2023-05-18T01:10:11;9.00;99.90
5775;DHT22;2913;51.120;6.772;2023-05-18T01:12:50;8.80;99.90
5775;DHT22;2913;51.120;6.772;2023-05-18T01:15:35;8.90;99.90
5775;DHT22;2913;51.120;6.772;2023-05-18T01:20:58;8.90;99.90
5775;DHT22;2913;51.120;6.772;2023-05-18T01:26:51;8.80;99.90
5775;DHT22;2913;51.120;6.772;2023-05-18T01:29:22;8.80;99.90
5775;DHT22;2913;51.120;6.772;2023-05-18T01:31:51;8.90;99.90
5775;DHT22;2913;51.120;6.772;2023-05-18T01:36:45;8.80;99.90
5775;DHT22;2913;51.120;6.772;2023-05-18T01:39:11;8.70;99.90
5775;DHT22;2913;51.120;6.772;2023-05-18T01:41:44;8.70;99.90
5775;DHT22;2913;51.120;6.772;2023-05-18T01:44:25;8.60;99.90
5775;DHT22;2913;51.120;6.772;2023-05-18T01:49:31;8.50;99.90
5775;DHT22;2913;51.120;6.772;2023-05-18T01:52:02;8.50;99.90
5775;DHT22;2913;51.120;6.772;2023-05-18T01:54:29;8.50;99.90
5775;DHT22;2913;51.120;6.772;2023-05-18T01:56:57;8.50;99.90
5775;DHT22;2913;51.120;6.772;2023-05-18T01:59:26;8.50;99.90
5775;DHT22;2913;51.120;6.772;2023-05-18T02:01:52;8.60;99.90
5775;DHT22;2913;51.120;6.772;2023-05-18T02:04:21;8.50;99.90
5775;DHT22;2913;51.120;6.772;2023-05-18T02:06:47;8.50;99.90
5775;DHT22;2913;51.120;6.772;2023-05-18T02:09:13;8.40;99.90
5775;DHT22;2913;51.120;6.772;2023-05-18T02:11:40;8.40;99.90
5775;DHT22;2913;51.120;6.772;2023-05-18T02:14:08;8.30;99.90
5775;DHT22;2913;51.120;6.772;2023-05-18T02:16:34;8.20;99.90
5775;DHT22;2913;51.120;6.772;2023-05-18T02:19:01;8.20;99.90
5775;DHT22;2913;51.120;6.772;2023-05-18T02:21:27;8.20;99.90
5775;DHT22;2913;51.120;6.772;2023-05-18T02:23:53;8.20;99.90
5775;DHT22;2913;51.120;6.772;2023-05-18T02:26:19;8.10;99.90
5775;DHT22;2913;51.120;6.772;2023-05-18T02:28:47;8.10;99.90
5775;DHT22;2913;51.120;6.772;2023-05-18T02:31:13;8.00;99.90
5775;DHT22;2913;51.120;6.772;2023-05-18T02:33:39;8.10;99.90
5775;DHT22;2913;51.120;6.772;2023-05-18T02:36:09;8.00;99.90
5775;DHT22;2913;51.120;6.772;2023-05-18T02:38:41;8.00;99.90
5775;DHT22;2913;51.120;6.772;2023-05-18T02:41:10;8.00;99.90
5775;DHT22;2913;51.120;6.772;2023-05-18T02:43:36;8.00;99.90
5775;DHT22;2913;51.120;6.772;2023-05-18T02:46:02;8.00;99.90
5775;DHT22;2913;51.120;6.772;2023-05-18T02:48:31;8.00;99.90
5775;DHT22;2913;51.120;6.772;2023-05-18T02:50:59;8.00;99.90
5775;DHT22;2913;51.120;6.772;2023-05-18T02:53:25;7.90;99.90
5775;DHT22;2913;51.120;6.772;2023-05-18T02:55:54;8.00;99.90
5775;DHT22;2913;51.120;6.772;2023-05-18T02:58:23;7.90;99.90
5775;DHT22;2913;51.120;6.772;2023-05-18T03:00:51;7.90;99.90
5775;DHT22;2913;51.120;6.772;2023-05-18T03:03:21;7.90;99.90
5775;DHT22;2913;51.120;6.772;2023-05-18T03:05:48;7.90;99.90
5775;DHT22;2913;51.120;6.772;2023-05-18T03:08:18;7.90;99.90
5775;DHT22;2913;51.120;6.772;2023-05-18T03:10:47;7.80;99.90
5775;DHT22;2913;51.120;6.772;2023-05-18T03:13:13;7.80;99.90
5775;DHT22;2913;51.120;6.772;2023-05-18T03:15:41;7.90;99.90
5775;DHT22;2913;51.120;6.772;2023-05-18T03:20:32;7.80;99.90
5775;DHT22;2913;51.120;6.772;2023-05-18T03:22:59;7.80;99.90
5775;DHT22;2913;51.120;6.772;2023-05-18T03:25:27;7.80;99.90
5775;DHT22;2913;51.120;6.772;2023-05-18T03:27:53;7.60;99.90
5775;DHT22;2913;51.120;6.772;2023-05-18T03:30:19;7.60;99.90
5775;DHT22;2913;51.120;6.772;2023-05-18T03:32:47;7.50;99.90
5775;DHT22;2913;51.120;6.772;2023-05-18T03:35:14;7.60;99.90
5775;DHT22;2913;51.120;6.772;2023-05-18T03:37:42;7.60;99.90
5775;DHT22;2913;51.120;6.772;2023-05-18T03:40:12;7.60;99.90
5775;DHT22;2913;51.120;6.772;2023-05-18T03:42:41;7.60;99.90
5775;DHT22;2913;51.120;6.772;2023-05-18T03:45:08;7.60;99.90
5775;DHT22;2913;51.120;6.772;2023-05-18T03:47:34;7.60;99.90
5775;DHT22;2913;51.120;6.772;2023-05-18T03:50:03;7.60;99.90
5775;DHT22;2913;51.120;6.772;2023-05-18T03:52:29;7.60;99.90
5775;DHT22;2913;51.120;6.772;2023-05-18T03:55:01;7.60;99.90
5775;DHT22;2913;51.120;6.772;2023-05-18T03:57:28;7.60;99.90
5775;DHT22;2913;51.120;6.772;2023-05-18T03:59:54;7.60;99.90
5775;DHT22;2913;51.120;6.772;2023-05-18T04:02:25;7.60;99.90
5775;DHT22;2913;51.120;6.772;2023-05-18T04:04:51;7.60;99.90
5775;DHT22;2913;51.120;6.772;2023-05-18T04:07:21;7.70;99.90
5775;DHT22;2913;51.120;6.772;2023-05-18T04:09:48;7.70;99.90
5775;DHT22;2913;51.120;6.772;2023-05-18T04:12:21;8.10;99.90
5775;DHT22;2913;51.120;6.772;2023-05-18T04:14:49;8.50;99.90
5775;DHT22;2913;51.120;6.772;2023-05-18T04:17:19;8.80;99.90
5775;DHT22;2913;51.120;6.772;2023-05-18T04:19:50;9.20;99.90
5775;DHT22;2913;51.120;6.772;2023-05-18T04:22:18;9.60;99.90
5775;DHT22;2913;51.120;6.772;2023-05-18T04:24:49;10.00;99.90
5775;DHT22;2913;51.120;6.772;2023-05-18T04:27:21;10.30;99.90
5775;DHT22;2913;51.120;6.772;2023-05-18T04:29:47;10.60;99.90
5775;DHT22;2913;51.120;6.772;2023-05-18T04:32:15;11.00;99.90
5775;DHT22;2913;51.120;6.772;2023-05-18T04:34:45;10.90;99.90
5775;DHT22;2913;51.120;6.772;2023-05-18T04:37:16;11.80;99.90
5775;DHT22;2913;51.120;6.772;2023-05-18T04:39:42;12.10;99.90
5775;DHT22;2913;51.120;6.772;2023-05-18T04:42:07;12.40;99.90
5775;DHT22;2913;51.120;6.772;2023-05-18T04:44:35;12.70;99.90
5775;DHT22;2913;51.120;6.772;2023-05-18T04:47:03;13.00;99.90
5775;DHT22;2913;51.120;6.772;2023-05-18T04:49:31;13.40;99.90
5775;DHT22;2913;51.120;6.772;2023-05-18T04:51:59;13.80;99.90
5775;DHT22;2913;51.120;6.772;2023-05-18T04:54:30;14.10;99.90
5775;DHT22;2913;51.120;6.772;2023-05-18T04:56:57;14.10;99.90
5775;DHT22;2913;51.120;6.772;2023-05-18T04:59:22;14.50;99.90
5775;DHT22;2913;51.120;6.772;2023-05-18T05:01:53;15.00;99.90
5775;DHT22;2913;51.120;6.772;2023-05-18T05:04:22;15.30;99.90
5775;DHT22;2913;51.120;6.772;2023-05-18T05:06:48;15.60;98.60
5775;DHT22;2913;51.120;6.772;2023-05-18T05:09:14;15.70;95.30
5775;DHT22;2913;51.120;6.772;2023-05-18T05:11:40;15.90;93.30
5775;DHT22;2913;51.120;6.772;2023-05-18T05:14:08;16.20;93.60
5775;DHT22;2913;51.120;6.772;2023-05-18T05:16:34;16.20;91.60
5775;DHT22;2913;51.120;6.772;2023-05-18T05:19:00;16.50;92.10
5775;DHT22;2913;51.120;6.772;2023-05-18T05:21:31;16.50;91.00
5775;DHT22;2913;51.120;6.772;2023-05-18T05:23:57;16.50;90.70
5775;DHT22;2913;51.120;6.772;2023-05-18T05:26:22;15.90;91.80
5775;DHT22;2913;51.120;6.772;2023-05-18T05:28:50;15.30;92.60
5775;DHT22;2913;51.120;6.772;2023-05-18T05:31:20;15.20;92.20
5775;DHT22;2913;51.120;6.772;2023-05-18T05:33:46;15.40;92.50
5775;DHT22;2913;51.120;6.772;2023-05-18T05:36:12;15.30;93.10
5775;DHT22;2913;51.120;6.772;2023-05-18T05:38:39;15.20;92.70
5775;DHT22;2913;51.120;6.772;2023-05-18T05:41:08;15.30;92.00
5775;DHT22;2913;51.120;6.772;2023-05-18T05:43:34;14.90;92.40
5775;DHT22;2913;51.120;6.772;2023-05-18T05:46:00;14.90;92.90
5775;DHT22;2913;51.120;6.772;2023-05-18T05:48:27;14.90;93.30
5775;DHT22;2913;51.120;6.772;2023-05-18T05:50:53;15.00;93.60
5775;DHT22;2913;51.120;6.772;2023-05-18T05:53:21;15.00;95.00
5775;DHT22;2913;51.120;6.772;2023-05-18T05:55:47;14.80;93.00
5775;DHT22;2913;51.120;6.772;2023-05-18T05:58:20;14.70;94.30
5775;DHT22;2913;51.120;6.772;2023-05-18T06:00:45;14.80;94.70
5775;DHT22;2913;51.120;6.772;2023-05-18T06:03:11;15.20;93.30
5775;DHT22;2913;51.120;6.772;2023-05-18T06:05:36;14.80;92.60
5775;DHT22;2913;51.120;6.772;2023-05-18T06:08:02;14.80;93.20
5775;DHT22;2913;51.120;6.772;2023-05-18T06:10:29;14.80;92.40
5775;DHT22;2913;51.120;6.772;2023-05-18T06:12:55;14.80;92.80
5775;DHT22;2913;51.120;6.772;2023-05-18T06:15:21;14.50;94.70
5775;DHT22;2913;51.120;6.772;2023-05-18T06:17:49;14.30;94.90
5775;DHT22;2913;51.120;6.772;2023-05-18T06:20:14;14.30;94.60
5775;DHT22;2913;51.120;6.772;2023-05-18T06:22:40;14.40;95.80
5775;DHT22;2913;51.120;6.772;2023-05-18T06:25:08;14.30;94.20
5775;DHT22;2913;51.120;6.772;2023-05-18T06:27:35;14.30;95.20
5775;DHT22;2913;51.120;6.772;2023-05-18T06:30:00;13.90;95.20
5775;DHT22;2913;51.120;6.772;2023-05-18T06:32:28;14.00;97.60
5775;DHT22;2913;51.120;6.772;2023-05-18T06:34:59;14.10;95.80
5775;DHT22;2913;51.120;6.772;2023-05-18T06:37:25;14.30;94.90
5775;DHT22;2913;51.120;6.772;2023-05-18T06:39:50;14.40;94.20
5775;DHT22;2913;51.120;6.772;2023-05-18T06:42:16;14.40;94.00
5775;DHT22;2913;51.120;6.772;2023-05-18T06:44:41;14.60;93.10
5775;DHT22;2913;51.120;6.772;2023-05-18T06:47:07;14.50;92.70
5775;DHT22;2913;51.120;6.772;2023-05-18T06:49:33;14.90;92.70
5775;DHT22;2913;51.120;6.772;2023-05-18T06:51:58;14.70;92.10
5775;DHT22;2913;51.120;6.772;2023-05-18T06:54:24;14.70;92.30
5775;DHT22;2913;51.120;6.772;2023-05-18T06:56:50;15.20;92.80
5775;DHT22;2913;51.120;6.772;2023-05-18T06:59:15;14.90;91.70
5775;DHT22;2913;51.120;6.772;2023-05-18T07:01:41;16.50;92.10
5775;DHT22;2913;51.120;6.772;2023-05-18T07:04:09;15.40;91.40
5775;DHT22;2913;51.120;6.772;2023-05-18T07:06:34;14.90;91.20
5775;DHT22;2913;51.120;6.772;2023-05-18T07:09:02;15.10;92.40
5775;DHT22;2913;51.120;6.772;2023-05-18T07:11:27;15.40;91.00
5775;DHT22;2913;51.120;6.772;2023-05-18T07:13:53;15.30;91.30
5775;DHT22;2913;51.120;6.772;2023-05-18T07:16:18;15.40;91.70
5775;DHT22;2913;51.120;6.772;2023-05-18T07:18:44;15.60;90.50
5775;DHT22;2913;51.120;6.772;2023-05-18T07:21:10;15.40;88.20
5775;DHT22;2913;51.120;6.772;2023-05-18T07:23:38;15.30;90.10
5775;DHT22;2913;51.120;6.772;2023-05-18T07:26:03;15.00;88.50
5775;DHT22;2913;51.120;6.772;2023-05-18T07:28:37;15.10;89.70
5775;DHT22;2913;51.120;6.772;2023-05-18T07:31:03;15.00;89.90
5775;DHT22;2913;51.120;6.772;2023-05-18T07:33:29;14.90;89.90
5775;DHT22;2913;51.120;6.772;2023-05-18T07:35:55;15.20;89.40
5775;DHT22;2913;51.120;6.772;2023-05-18T07:38:20;15.40;87.00
5775;DHT22;2913;51.120;6.772;2023-05-18T07:40:46;15.00;86.70
5775;DHT22;2913;51.120;6.772;2023-05-18T07:43:14;15.50;83.50
5775;DHT22;2913;51.120;6.772;2023-05-18T07:45:42;15.60;84.40
5775;DHT22;2913;51.120;6.772;2023-05-18T07:48:10;15.60;83.20
5775;DHT22;2913;51.120;6.772;2023-05-18T07:50:38;15.40;82.90
5775;DHT22;2913;51.120;6.772;2023-05-18T07:53:04;15.80;84.00
5775;DHT22;2913;51.120;6.772;2023-05-18T07:55:30;15.50;83.30
5775;DHT22;2913;51.120;6.772;2023-05-18T07:57:55;15.10;84.50
5775;DHT22;2913;51.120;6.772;2023-05-18T08:00:21;15.20;84.50
5775;DHT22;2913;51.120;6.772;2023-05-18T08:02:47;15.50;85.00
5775;DHT22;2913;51.120;6.772;2023-05-18T08:05:15;15.30;81.00
5775;DHT22;2913;51.120;6.772;2023-05-18T08:07:42;15.30;81.50
5775;DHT22;2913;51.120;6.772;2023-05-18T08:10:08;15.40;78.80
5775;DHT22;2913;51.120;6.772;2023-05-18T08:12:34;15.60;78.90
5775;DHT22;2913;51.120;6.772;2023-05-18T08:15:02;15.80;78.90
5775;DHT22;2913;51.120;6.772;2023-05-18T08:17:28;15.90;82.00
5775;DHT22;2913;51.120;6.772;2023-05-18T08:19:54;15.70;82.60
5775;DHT22;2913;51.120;6.772;2023-05-18T08:22:21;15.70;78.40
5775;DHT22;2913;51.120;6.772;2023-05-18T08:24:49;15.70;77.20
5775;DHT22;2913;51.120;6.772;2023-05-18T08:27:15;15.90;77.20
5775;DHT22;2913;51.120;6.772;2023-05-18T08:29:40;16.10;78.60
5775;DHT22;2913;51.120;6.772;2023-05-18T08:32:08;15.80;74.90
5775;DHT22;2913;51.120;6.772;2023-05-18T08:34:36;15.90;77.00
5775;DHT22;2913;51.120;6.772;2023-05-18T08:37:04;15.80;76.10
5775;DHT22;2913;51.120;6.772;2023-05-18T08:39:30;15.60;76.70
5775;DHT22;2913;51.120;6.772;2023-05-18T08:44:50;15.50;75.50
5775;DHT22;2913;51.120;6.772;2023-05-18T08:47:21;15.20;74.90
5775;DHT22;2913;51.120;6.772;2023-05-18T08:49:51;15.80;76.60
5775;DHT22;2913;51.120;6.772;2023-05-18T08:52:24;15.40;74.80
5775;DHT22;2913;51.120;6.772;2023-05-18T08:54:53;15.30;75.40
5775;DHT22;2913;51.120;6.772;2023-05-18T08:57:23;15.60;76.60
5775;DHT22;2913;51.120;6.772;2023-05-18T08:59:53;16.00;79.70
5775;DHT22;2913;51.120;6.772;2023-05-18T09:02:23;16.10;78.50
5775;DHT22;2913;51.120;6.772;2023-05-18T09:04:52;16.10;79.10
5775;DHT22;2913;51.120;6.772;2023-05-18T09:07:19;16.30;78.90
5775;DHT22;2913;51.120;6.772;2023-05-18T09:09:51;16.10;76.50
5775;DHT22;2913;51.120;6.772;2023-05-18T09:12:20;16.30;77.20
5775;DHT22;2913;51.120;6.772;2023-05-18T09:14:49;15.90;74.30
5775;DHT22;2913;51.120;6.772;2023-05-18T09:17:18;15.80;76.80
5775;DHT22;2913;51.120;6.772;2023-05-18T09:19:43;15.30;76.20
5775;DHT22;2913;51.120;6.772;2023-05-18T09:22:09;15.60;77.00
5775;DHT22;2913;51.120;6.772;2023-05-18T09:24:35;15.50;76.60
5775;DHT22;2913;51.120;6.772;2023-05-18T09:27:04;15.50;77.00
5775;DHT22;2913;51.120;6.772;2023-05-18T09:29:30;15.50;77.40
5775;DHT22;2913;51.120;6.772;2023-05-18T09:32:02;15.40;77.20
5775;DHT22;2913;51.120;6.772;2023-05-18T09:34:38;15.30;78.00
5775;DHT22;2913;51.120;6.772;2023-05-18T09:37:05;15.50;77.40
5775;DHT22;2913;51.120;6.772;2023-05-18T09:39:31;15.60;77.50
5775;DHT22;2913;51.120;6.772;2023-05-18T09:41:57;15.60;76.40
5775;DHT22;2913;51.120;6.772;2023-05-18T09:44:33;16.10;78.10
5775;DHT22;2913;51.120;6.772;2023-05-18T09:46:59;15.30;76.50
5775;DHT22;2913;51.120;6.772;2023-05-18T09:49:28;16.00;78.90
5775;DHT22;2913;51.120;6.772;2023-05-18T09:51:56;16.10;81.00
5775;DHT22;2913;51.120;6.772;2023-05-18T09:54:24;16.00;76.40
5775;DHT22;2913;51.120;6.772;2023-05-18T09:56:49;16.30;76.20
5775;DHT22;2913;51.120;6.772;2023-05-18T09:59:15;16.50;77.00
5775;DHT22;2913;51.120;6.772;2023-05-18T10:02:00;16.70;77.90
5775;DHT22;2913;51.120;6.772;2023-05-18T10:04:41;17.10;79.10
5775;DHT22;2913;51.120;6.772;2023-05-18T10:07:14;17.20;75.50
5775;DHT22;2913;51.120;6.772;2023-05-18T10:09:42;16.80;73.80
5775;DHT22;2913;51.120;6.772;2023-05-18T10:12:16;16.60;74.80
5775;DHT22;2913;51.120;6.772;2023-05-18T10:14:45;16.90;75.30
5775;DHT22;2913;51.120;6.772;2023-05-18T10:17:14;16.60;75.90
5775;DHT22;2913;51.120;6.772;2023-05-18T10:19:41;16.70;76.80
5775;DHT22;2913;51.120;6.772;2023-05-18T10:22:15;16.40;75.80
5775;DHT22;2913;51.120;6.772;2023-05-18T10:24:41;16.60;76.00
5775;DHT22;2913;51.120;6.772;2023-05-18T10:27:13;16.70;75.60
5775;DHT22;2913;51.120;6.772;2023-05-18T10:29:40;16.90;74.70
5775;DHT22;2913;51.120;6.772;2023-05-18T10:32:11;16.80;73.90
5775;DHT22;2913;51.120;6.772;2023-05-18T10:34:39;16.50;74.60
5775;DHT22;2913;51.120;6.772;2023-05-18T10:37:06;16.70;73.70
5775;DHT22;2913;51.120;6.772;2023-05-18T10:39:35;16.70;75.40
5775;DHT22;2913;51.120;6.772;2023-05-18T10:42:02;16.50;75.40
5775;DHT22;2913;51.120;6.772;2023-05-18T10:44:29;16.50;74.70
5775;DHT22;2913;51.120;6.772;2023-05-18T10:46:55;16.30;74.00
5775;DHT22;2913;51.120;6.772;2023-05-18T10:49:21;16.50;73.50
5775;DHT22;2913;51.120;6.772;2023-05-18T10:51:52;16.80;76.10
5775;DHT22;2913;51.120;6.772;2023-05-18T10:54:18;16.80;76.90
5775;DHT22;2913;51.120;6.772;2023-05-18T10:56:50;16.70;76.90
5775;DHT22;2913;51.120;6.772;2023-05-18T10:59:19;17.00;75.90
5775;DHT22;2913;51.120;6.772;2023-05-18T11:01:49;17.10;76.10
5775;DHT22;2913;51.120;6.772;2023-05-18T11:04:20;17.00;76.10
5775;DHT22;2913;51.120;6.772;2023-05-18T11:06:55;16.90;75.60
5775;DHT22;2913;51.120;6.772;2023-05-18T11:09:22;17.20;75.30
5775;DHT22;2913;51.120;6.772;2023-05-18T11:11:50;17.20;75.40
5775;DHT22;2913;51.120;6.772;2023-05-18T11:14:28;17.10;77.20
5775;DHT22;2913;51.120;6.772;2023-05-18T11:17:14;17.20;78.70
5775;DHT22;2913;51.120;6.772;2023-05-18T11:22:42;17.00;75.50
5775;DHT22;2913;51.120;6.772;2023-05-18T11:25:09;17.30;76.90
5775;DHT22;2913;51.120;6.772;2023-05-18T11:27:36;17.10;74.20
5775;DHT22;2913;51.120;6.772;2023-05-18T11:30:02;17.10;75.00
5775;DHT22;2913;51.120;6.772;2023-05-18T11:32:29;16.90;74.90
5775;DHT22;2913;51.120;6.772;2023-05-18T11:34:57;17.20;76.50
5775;DHT22;2913;51.120;6.772;2023-05-18T11:40:05;17.60;74.90
5775;DHT22;2913;51.120;6.772;2023-05-18T11:42:34;17.50;75.20
5775;DHT22;2913;51.120;6.772;2023-05-18T11:45:10;17.20;74.40
5775;DHT22;2913;51.120;6.772;2023-05-18T11:47:37;17.50;74.00
5775;DHT22;2913;51.120;6.772;2023-05-18T11:50:07;17.30;74.90
5775;DHT22;2913;51.120;6.772;2023-05-18T11:52:47;17.80;76.80
5775;DHT22;2913;51.120;6.772;2023-05-18T11:55:15;17.50;75.00
5775;DHT22;2913;51.120;6.772;2023-05-18T11:57:42;17.50;75.00
5775;DHT22;2913;51.120;6.772;2023-05-18T12:00:12;17.00;74.20
5775;DHT22;2913;51.120;6.772;2023-05-18T12:02:43;17.10;77.90
5775;DHT22;2913;51.120;6.772;2023-05-18T12:05:09;16.90;75.50
5775;DHT22;2913;51.120;6.772;2023-05-18T12:07:36;16.50;77.10
5775;DHT22;2913;51.120;6.772;2023-05-18T12:10:07;17.00;77.90
5775;DHT22;2913;51.120;6.772;2023-05-18T12:12:34;17.10;77.40
5775;DHT22;2913;51.120;6.772;2023-05-18T12:15:04;17.30;78.30
5775;DHT22;2913;51.120;6.772;2023-05-18T12:17:50;17.60;78.20
5775;DHT22;2913;51.120;6.772;2023-05-18T12:20:18;17.50;74.20
5775;DHT22;2913;51.120;6.772;2023-05-18T12:22:45;17.30;75.50
5775;DHT22;2913;51.120;6.772;2023-05-18T12:25:11;17.50;74.30
5775;DHT22;2913;51.120;6.772;2023-05-18T12:27:41;17.50;74.90
5775;DHT22;2913;51.120;6.772;2023-05-18T12:30:12;17.80;76.10
5775;DHT22;2913;51.120;6.772;2023-05-18T12:32:52;17.90;75.20
5775;DHT22;2913;51.120;6.772;2023-05-18T12:35:25;18.20;75.10
5775;DHT22;2913;51.120;6.772;2023-05-18T12:37:53;18.20;75.30
5775;DHT22;2913;51.120;6.772;2023-05-18T12:40:20;18.20;74.20
5775;DHT22;2913;51.120;6.772;2023-05-18T12:42:53;18.40;74.10
5775;DHT22;2913;51.120;6.772;2023-05-18T12:45:23;18.00;74.20
5775;DHT22;2913;51.120;6.772;2023-05-18T12:47:49;18.30;75.00
5775;DHT22;2913;51.120;6.772;2023-05-18T12:50:20;18.20;74.50
5775;DHT22;2913;51.120;6.772;2023-05-18T12:52:49;18.20;75.80
5775;DHT22;2913;51.120;6.772;2023-05-18T12:55:17;18.20;73.80
5775;DHT22;2913;51.120;6.772;2023-05-18T12:57:56;18.00;74.80
5775;DHT22;2913;51.120;6.772;2023-05-18T13:00:22;18.10;73.80
5775;DHT22;2913;51.120;6.772;2023-05-18T13:02:48;18.10;75.30
5775;DHT22;2913;51.120;6.772;2023-05-18T13:05:22;17.90;73.50
5775;DHT22;2913;51.120;6.772;2023-05-18T13:07:50;17.80;73.70
5775;DHT22;2913;51.120;6.772;2023-05-18T13:10:18;18.00;76.50
5775;DHT22;2913;51.120;6.772;2023-05-18T13:12:47;18.10;73.30
5775;DHT22;2913;51.120;6.772;2023-05-18T13:15:14;17.80;71.90
5775;DHT22;2913;51.120;6.772;2023-05-18T13:18:03;18.30;73.00
5775;DHT22;2913;51.120;6.772;2023-05-18T13:20:33;18.00;71.70
5775;DHT22;2913;51.120;6.772;2023-05-18T13:23:10;18.40;74.00
5775;DHT22;2913;51.120;6.772;2023-05-18T13:25:41;18.10;72.80
5775;DHT22;2913;51.120;6.772;2023-05-18T13:28:13;18.20;73.30
5775;DHT22;2913;51.120;6.772;2023-05-18T13:30:43;18.20;71.80
5775;DHT22;2913;51.120;6.772;2023-05-18T13:33:12;18.50;73.70
5775;DHT22;2913;51.120;6.772;2023-05-18T13:35:39;18.40;73.50
5775;DHT22;2913;51.120;6.772;2023-05-18T13:38:11;18.50;72.20
5775;DHT22;2913;51.120;6.772;2023-05-18T13:40:40;18.60;73.00
5775;DHT22;2913;51.120;6.772;2023-05-18T13:43:09;18.50;72.10
5775;DHT22;2913;51.120;6.772;2023-05-18T13:45:34;18.20;72.20
5775;DHT22;2913;51.120;6.772;2023-05-18T13:48:01;18.40;72.30
5775;DHT22;2913;51.120;6.772;2023-05-18T13:50:31;18.50;71.90
5775;DHT22;2913;51.120;6.772;2023-05-18T13:52:56;18.50;72.80
5775;DHT22;2913;51.120;6.772;2023-05-18T13:55:24;18.50;71.70
5775;DHT22;2913;51.120;6.772;2023-05-18T13:57:50;18.60;72.80
5775;DHT22;2913;51.120;6.772;2023-05-18T14:00:16;18.70;72.00
5775;DHT22;2913;51.120;6.772;2023-05-18T14:02:46;18.40;71.50
5775;DHT22;2913;51.120;6.772;2023-05-18T14:05:12;18.50;73.40
5775;DHT22;2913;51.120;6.772;2023-05-18T14:07:41;18.30;73.90
5775;DHT22;2913;51.120;6.772;2023-05-18T14:10:08;18.40;73.30
5775;DHT22;2913;51.120;6.772;2023-05-18T14:12:34;18.40;72.60
5775;DHT22;2913;51.120;6.772;2023-05-18T14:15:00;18.50;72.60
5775;DHT22;2913;51.120;6.772;2023-05-18T14:17:26;18.40;73.60
5775;DHT22;2913;51.120;6.772;2023-05-18T14:19:55;18.40;73.30
5775;DHT22;2913;51.120;6.772;2023-05-18T14:22:21;18.30;72.40
5775;DHT22;2913;51.120;6.772;2023-05-18T14:24:50;18.40;73.50
5775;DHT22;2913;51.120;6.772;2023-05-18T14:27:15;18.50;73.90
5775;DHT22;2913;51.120;6.772;2023-05-18T14:29:45;18.40;72.70
5775;DHT22;2913;51.120;6.772;2023-05-18T14:32:13;18.50;73.50
5775;DHT22;2913;51.120;6.772;2023-05-18T14:34:38;18.50;72.30
5775;DHT22;2913;51.120;6.772;2023-05-18T14:37:04;18.50;73.30
5775;DHT22;2913;51.120;6.772;2023-05-18T14:39:30;18.70;73.70
5775;DHT22;2913;51.120;6.772;2023-05-18T14:41:55;18.40;72.00
5775;DHT22;2913;51.120;6.772;2023-05-18T14:44:23;18.60;72.10
5775;DHT22;2913;51.120;6.772;2023-05-18T14:46:51;18.50;71.70
5775;DHT22;2913;51.120;6.772;2023-05-18T14:49:22;18.40;72.70
5775;DHT22;2913;51.120;6.772;2023-05-18T14:51:48;18.70;73.20
5775;DHT22;2913;51.120;6.772;2023-05-18T14:54:13;18.70;70.80
5775;DHT22;2913;51.120;6.772;2023-05-18T14:56:45;18.70;71.60
5775;DHT22;2913;51.120;6.772;2023-05-18T14:59:11;18.70;72.60
5775;DHT22;2913;51.120;6.772;2023-05-18T15:01:39;18.60;73.60
5775;DHT22;2913;51.120;6.772;2023-05-18T15:04:07;18.70;73.50
5775;DHT22;2913;51.120;6.772;2023-05-18T15:06:35;18.90;73.90
5775;DHT22;2913;51.120;6.772;2023-05-18T15:09:02;18.80;73.40
5775;DHT22;2913;51.120;6.772;2023-05-18T15:11:29;18.60;73.10
5775;DHT22;2913;51.120;6.772;2023-05-18T15:13:57;18.70;74.00
5775;DHT22;2913;51.120;6.772;2023-05-18T15:16:25;18.50;74.40
5775;DHT22;2913;51.120;6.772;2023-05-18T15:18:51;18.40;73.70
5775;DHT22;2913;51.120;6.772;2023-05-18T15:21:17;18.60;73.90
5775;DHT22;2913;51.120;6.772;2023-05-18T15:23:42;18.60;74.10
5775;DHT22;2913;51.120;6.772;2023-05-18T15:26:08;18.50;74.10
5775;DHT22;2913;51.120;6.772;2023-05-18T15:28:36;18.50;75.00
5775;DHT22;2913;51.120;6.772;2023-05-18T15:31:04;18.40;73.50
5775;DHT22;2913;51.120;6.772;2023-05-18T15:33:29;18.60;75.70
5775;DHT22;2913;51.120;6.772;2023-05-18T15:35:55;18.60;74.50
5775;DHT22;2913;51.120;6.772;2023-05-18T15:38:20;18.50;74.30
5775;DHT22;2913;51.120;6.772;2023-05-18T15:40:46;18.50;74.30
5775;DHT22;2913;51.120;6.772;2023-05-18T15:43:12;18.80;75.20
5775;DHT22;2913;51.120;6.772;2023-05-18T15:45:38;18.60;74.20
5775;DHT22;2913;51.120;6.772;2023-05-18T15:48:06;18.60;75.60
5775;DHT22;2913;51.120;6.772;2023-05-18T15:50:31;18.60;74.40
5775;DHT22;2913;51.120;6.772;2023-05-18T15:52:59;18.30;73.90
5775;DHT22;2913;51.120;6.772;2023-05-18T15:55:25;18.50;75.20
5775;DHT22;2913;51.120;6.772;2023-05-18T15:57:53;18.30;74.50
5775;DHT22;2913;51.120;6.772;2023-05-18T16:00:18;18.50;75.00
5775;DHT22;2913;51.120;6.772;2023-05-18T16:02:48;18.50;74.40
5775;DHT22;2913;51.120;6.772;2023-05-18T16:05:13;18.60;74.80
5775;DHT22;2913;51.120;6.772;2023-05-18T16:07:41;18.60;75.30
5775;DHT22;2913;51.120;6.772;2023-05-18T16:12:36;18.50;74.80
5775;DHT22;2913;51.120;6.772;2023-05-18T16:15:05;18.40;75.70
5775;DHT22;2913;51.120;6.772;2023-05-18T16:17:33;18.10;74.20
5775;DHT22;2913;51.120;6.772;2023-05-18T16:19:59;18.20;74.60
5775;DHT22;2913;51.120;6.772;2023-05-18T16:22:24;18.20;75.00
5775;DHT22;2913;51.120;6.772;2023-05-18T16:24:52;18.30;76.10
5775;DHT22;2913;51.120;6.772;2023-05-18T16:27:22;18.40;75.90
5775;DHT22;2913;51.120;6.772;2023-05-18T16:29:47;18.30;75.70
5775;DHT22;2913;51.120;6.772;2023-05-18T16:32:13;18.20;74.90
5775;DHT22;2913;51.120;6.772;2023-05-18T16:34:41;18.10;75.60